Data for 08/19/2009

Time Sea-Level Adjusted Pressure Absolute Pressure Temperature Relative Humidity Dew Point   
(mb) (inHg) (mb) (inHg) (C) (F) (%) (C) (F)
00:05 1018 30.06 847 25.01 17.9 64.2 51 7.6 45.7
00:10 1018 30.06 847 25.01 17.8 64.1 52 7.9 46.2
00:15 1018 30.06 847 25.01 17.7 63.9 52 7.8 46
00:20 1018 30.06 847 25.01 17.7 63.9 51 7.7 45.8
00:25 1018 30.06 847 25.01 17.8 64 51 7.6 45.7
00:30 1018 30.06 847 25.01 17.7 63.9 52 7.8 46
00:35 1018 30.06 847 25.01 17.7 63.8 51 7.5 45.5
00:40 1018 30.06 847 25.01 17.6 63.7 53 8 46.5
00:45 1018 30.06 847 25.01 17.4 63.3 54 8 46.5
00:50 1018 30.06 847 25.01 17.3 63.1 54 7.9 46.3
00:55 1018 30.06 847 25.01 17.1 62.7 56 8.4 47.1
01:00 1018 30.06 847 25.01 16.7 62.1 56 8 46.5
01:05 1018 30.06 847 25.01 16.7 62.1 59 8.7 47.6
01:10 1018 30.06 847 25.01 16.7 62.1 58 8.5 47.2
01:15 1018 30.06 847 25.01 16.6 61.9 59 8.6 47.5
01:20 1018 30.06 847 25.01 16.6 61.8 59 8.5 47.3
01:25 1018 30.06 847 25.01 16.5 61.7 59 8.6 47.5
01:30 1018 30.06 847 25.01 16.5 61.6 59 8.6 47.4
01:35 1018 30.06 847 25.01 16.5 61.7 58 8.2 46.8
01:40 1018 30.06 847 25.01 16.5 61.7 58 8.4 47.2
01:45 1018 30.06 847 25.01 16.4 61.6 60 8.7 47.6
01:50 1018 30.06 847 25.01 16.3 61.3 61 8.9 48
01:55 1018 30.06 847 25.01 16.2 61.1 60 8.5 47.3
02:00 1018 30.06 847 25.01 16.2 61.2 59 8.3 46.9
02:05 1018 30.06 847 25.01 16.2 61.1 58 8 46.4
02:10 1018 30.06 847 25.01 16.2 61.1 58 8.1 46.6
02:15 1018 30.06 847 25.01 16.1 61.1 60 8.4 47.1
02:20 1018 30.06 847 25.01 15.9 60.7 59 8 46.5
02:25 1018 30.06 847 25.01 16.1 61 57 7.6 45.8
02:30 1018 30.06 847 25.01 16.5 61.6 54 7.3 45.2
02:35 1018 30.06 847 25.01 16.7 62 55 7.8 46
02:40 1018 30.06 847 25.01 16.6 61.9 56 7.8 46.1
02:45 1018 30.06 847 25.01 16.5 61.6 57 8.1 46.6
02:50 1018 30.06 847 25.01 16.3 61.3 58 8.2 46.8
02:55 1018 30.06 847 25.01 16.2 61.2 60 8.6 47.4
03:00 1018 30.06 847 25.01 16 60.7 61 8.5 47.2
03:05 1018 30.06 847 25.01 15.8 60.5 61 8.3 46.9
03:10 1018 30.06 847 25.01 15.7 60.3 61 8.2 46.8
03:15 1018 30.06 847 25.01 15.6 60 62 8.3 47
03:20 1018 30.06 847 25.01 15.4 59.8 64 8.7 47.6
03:25 1018 30.06 847 25.01 15.3 59.6 63 8.5 47.3
03:30 1018 30.06 847 25.01 15.2 59.4 61 8 46.3
03:35 1018 30.06 847 25.01 15.2 59.3 61 7.9 46.2
03:40 1018 30.06 847 25.01 15.2 59.4 61 7.9 46.2
03:45 1018 30.06 847 25.01 15.2 59.4 61 7.8 46.1
03:50 1018 30.06 847 25.01 15.3 59.5 60 7.6 45.6
03:55 1018 30.06 847 25.01 15.4 59.7 60 7.7 45.8
04:00 1018 30.06 847 25.01 15.4 59.8 60 7.7 45.9
04:05 1018 30.06 847 25.01 15.2 59.4 60 7.6 45.7
04:10 1018 30.06 847 25.01 15.2 59.4 61 7.7 45.9
04:15 1018 30.06 848 25.04 15.3 59.5 59 7.5 45.5
04:20 1018 30.06 848 25.04 15.4 59.7 59 7.5 45.4
04:25 1018 30.06 848 25.04 15.6 60.1 58 7.5 45.4
04:30 1018 30.06 848 25.04 15.7 60.2 59 7.7 45.8
04:35 1018 30.06 848 25.04 15.8 60.4 58 7.5 45.5
04:40 1018 30.06 848 25.04 15.8 60.4 58 7.7 45.9
04:45 1019 30.09 848 25.04 15.6 60.1 60 8 46.4
04:50 1019 30.09 848 25.04 15.5 59.9 59 7.5 45.5
04:55 1019 30.09 848 25.04 15.6 60 61 8.1 46.5
05:00 1019 30.09 848 25.04 15.5 60 59 7.6 45.6
05:05 1019 30.09 848 25.04 15.4 59.7 61 8 46.3
05:10 1019 30.09 848 25.04 15.1 59.2 63 8.2 46.7
05:15 1018 30.06 848 25.04 15.1 59.1 63 8.1 46.7
05:20 1018 30.06 848 25.04 15.1 59.1 63 8.2 46.8
05:25 1018 30.06 848 25.04 15.1 59.1 61 7.7 45.9
05:30 1018 30.06 848 25.04 15 59 63 8.1 46.6
05:35 1018 30.06 848 25.04 14.9 58.9 62 7.8 46.1
05:40 1018 30.06 848 25.04 14.9 58.8 63 8 46.5
05:45 1018 30.06 848 25.04 14.6 58.3 63 7.8 46
05:50 1018 30.06 848 25.04 14.4 57.9 63 7.6 45.7
05:55 1018 30.06 848 25.04 14.4 58 63 7.6 45.6
06:00 1018 30.06 848 25.04 14.4 58 63 7.5 45.5
06:05 1019 30.09 848 25.04 14.4 58 63 7.6 45.7
06:10 1019 30.09 848 25.04 14.4 58 62 7.4 45.4
06:15 1018 30.06 848 25.04 14.6 58.3 63 7.6 45.8
06:20 1018 30.06 848 25.04 14.6 58.3 62 7.6 45.6
06:25 1018 30.06 848 25.04 14.7 58.4 63 7.7 45.9
06:30 1018 30.06 848 25.04 14.7 58.4 63 7.7 45.9
06:35 1018 30.06 848 25.04 14.6 58.3 63 7.7 45.8
06:40 1018 30.06 848 25.04 14.7 58.4 62 7.5 45.5
06:45 1018 30.06 848 25.04 14.8 58.6 62 7.7 45.8
06:50 1019 30.09 848 25.04 14.8 58.6 61 7.5 45.5
06:55 1019 30.09 848 25.04 14.8 58.7 61 7.4 45.3
07:00 1019 30.09 848 25.04 14.9 58.8 62 7.7 45.8
07:05 1019 30.09 848 25.04 14.9 58.8 62 7.7 45.9
07:10 1019 30.09 848 25.04 14.9 58.7 61 7.5 45.4
07:15 1019 30.09 848 25.04 14.9 58.9 60 7.4 45.4
07:20 1019 30.09 848 25.04 15.1 59.2 60 7.4 45.4
07:25 1019 30.09 848 25.04 15.3 59.6 59 7.4 45.3
07:30 1019 30.09 848 25.04 15.6 60.2 58 7.5 45.5
07:35 1019 30.09 848 25.04 15.6 60.1 59 7.8 46
07:40 1019 30.09 848 25.04 15.8 60.5 59 7.8 46
07:45 1019 30.09 848 25.04 16 60.8 59 8 46.4
07:50 1019 30.09 848 25.04 16.1 61 59 8.2 46.7
07:55 1019 30.09 848 25.04 16.1 60.9 60 8.4 47.1
08:00 1019 30.09 848 25.04 16 60.8 61 8.5 47.3
08:05 1019 30.09 848 25.04 16.2 61.1 58 8.1 46.6
08:10 1019 30.09 848 25.04 16.3 61.4 57 7.9 46.3
08:15 1019 30.09 848 25.04 16.5 61.6 56 7.8 46
08:20 1019 30.09 848 25.04 16.6 61.8 57 8.2 46.7
08:25 1019 30.09 848 25.04 16.6 61.9 57 8.2 46.7
08:30 1019 30.09 848 25.04 16.7 62 57 8.3 46.9
08:35 1019 30.09 848 25.04 16.7 62.1 57 8.3 46.9
08:40 1019 30.09 848 25.04 16.8 62.3 59 9 48.1
08:45 1019 30.09 848 25.04 17 62.6 57 8.4 47.2
08:50 1019 30.09 848 25.04 17.2 62.9 56 8.4 47
08:55 1019 30.09 848 25.04 17.1 62.8 55 8.2 46.7
09:00 1019 30.09 848 25.04 17 62.6 56 8.3 47
09:05 1019 30.09 848 25.04 17.1 62.7 56 8.3 47
09:10 1019 30.09 848 25.04 17.2 62.9 56 8.4 47.1
09:15 1019 30.09 848 25.04 17.2 62.9 56 8.3 47
09:20 1019 30.09 848 25.04 17.5 63.6 53 8 46.3
09:25 1019 30.09 848 25.04 18.1 64.5 50 7.8 46
09:30 1019 30.09 849 25.07 18.3 65 50 7.8 46.1
09:35 1019 30.09 849 25.07 18.4 65.1 49 7.6 45.6
09:40 1019 30.09 849 25.07 18.1 64.6 51 8 46.4
09:45 1019 30.09 849 25.07 18.1 64.6 51 7.8 46.1
09:50 1019 30.09 849 25.07 18.5 65.4 49 7.6 45.8
09:55 1019 30.09 849 25.07 19.7 67.4 44 7.3 45.2
10:00 1019 30.09 849 25.07 19.9 67.8 44 7.4 45.3
10:05 1019 30.09 849 25.07 19.7 67.5 45 7.7 45.9
10:10 1019 30.09 849 25.07 19.6 67.3 46 7.8 46.1
10:15 1019 30.09 849 25.07 19.2 66.6 46 7.4 45.3
10:20 1019 30.09 848 25.04 19.5 67.1 45 7.4 45.3
10:25 1019 30.09 848 25.04 20.1 68.2 43 7.4 45.2
10:30 1019 30.09 849 25.07 21.2 70.1 41 7.5 45.5
10:35 1019 30.09 849 25.07 20.6 69 44 8.2 46.8
10:40 1019 30.09 849 25.07 20.5 68.9 44 8 46.4
10:45 1019 30.09 849 25.07 21.2 70.2 39 7 44.6
10:50 1019 30.09 849 25.07 21.6 70.9 38 7 44.6
10:55 1019 30.09 849 25.07 21.9 71.5 39 7.5 45.6
11:00 1019 30.09 849 25.07 21.9 71.4 39 7.4 45.3
11:05 1019 30.09 849 25.07 21.8 71.2 39 7.4 45.3
11:10 1019 30.09 849 25.07 22 71.5 38 7.1 44.8
11:15 1019 30.09 849 25.07 22.5 72.6 37 7.1 44.9
11:20 1019 30.09 849 25.07 22 71.7 37 7 44.6
11:25 1019 30.09 849 25.07 22.4 72.3 36 7 44.5
11:30 1019 30.09 849 25.07 22.3 72.1 38 7.4 45.3
11:35 1019 30.09 849 25.07 22.5 72.4 36 6.8 44.3
11:40 1019 30.09 849 25.07 22.7 72.8 37 7.6 45.7
11:45 1019 30.09 849 25.07 22.8 73 37 7.4 45.2
11:50 1019 30.09 849 25.07 22.9 73.1 36 7.1 44.7
11:55 1019 30.09 849 25.07 22.7 72.9 37 7.4 45.3
12:00 1019 30.09 849 25.07 22.8 73 36 7.1 44.8
12:05 1019 30.09 849 25.07 23.1 73.5 37 7.7 45.9
12:10 1019 30.09 849 25.07 23 73.5 37 7.7 45.9
12:15 1019 30.09 848 25.04 23.5 74.2 35 7.4 45.3
12:20 1019 30.09 848 25.04 23.4 74.2 34 6.8 44.2
12:25 1019 30.09 849 25.07 23.4 74.2 33 6.5 43.7
12:30 1019 30.09 849 25.07 23.3 73.9 34 6.6 43.9
12:35 1019 30.09 849 25.07 23.4 74.2 34 6.7 44.1
12:40 1019 30.09 849 25.07 23.9 75.1 33 6.8 44.2
12:45 1019 30.09 849 25.07 23.6 74.4 33 6.7 44
12:50 1019 30.09 849 25.07 23.3 74 34 6.9 44.4
12:55 1019 30.09 848 25.04 22.7 72.9 34 6.2 43.1
13:00 1019 30.09 848 25.04 23.3 74 34 6.9 44.4
13:05 1019 30.09 848 25.04 23.6 74.4 31 5.5 41.8
13:10 1019 30.09 848 25.04 23.8 74.8 30 5.5 41.9
13:15 1019 30.09 848 25.04 23.3 74 30 5.1 41.2
13:20 1019 30.09 848 25.04 24.2 75.6 29 5.2 41.4
13:25 1019 30.09 848 25.04 24.5 76 30 6 42.7
13:30 1019 30.09 848 25.04 24.3 75.7 30 5.8 42.5
13:35 1019 30.09 848 25.04 24.2 75.5 31 6.3 43.3
13:40 1019 30.09 848 25.04 24.1 75.3 30 5.8 42.4
13:45 1019 30.09 848 25.04 24.1 75.4 31 6 42.7
13:50 1019 30.09 848 25.04 23.9 75 32 6.2 43.2
13:55 1019 30.09 848 25.04 24.5 76.1 31 6.5 43.8
14:00 1019 30.09 848 25.04 24.6 76.3 28 5.2 41.3
14:05 1019 30.09 848 25.04 24.8 76.6 29 5.6 42.1
14:10 1019 30.09 848 25.04 24.8 76.7 30 6.2 43.2
14:15 1019 30.09 848 25.04 24.8 76.6 29 5.5 42
14:20 1019 30.09 848 25.04 25 77 29 5.8 42.5
14:25 1019 30.09 848 25.04 24.9 76.8 29 5.8 42.4
14:30 1019 30.09 848 25.04 25.1 77.2 28 5.5 41.9
14:35 1019 30.09 848 25.04 25.6 78.1 27 5.5 41.9
14:40 1019 30.09 848 25.04 25.6 78 27 5.7 42.3
14:45 1019 30.09 848 25.04 25.7 78.2 28 6.1 42.9
14:50 1019 30.09 848 25.04 25.5 78 28 5.7 42.3
14:55 1019 30.09 848 25.04 25.3 77.5 29 6.2 43.1
15:00 1019 30.09 848 25.04 25.1 77.3 29 6.1 42.9
15:05 1019 30.09 848 25.04 25.4 77.7 28 5.8 42.4
15:10 1019 30.09 848 25.04 24.9 76.8 31 6.9 44.5
15:15 1019 30.09 848 25.04 24.2 75.6 30 5.7 42.3
15:20 1019 30.09 848 25.04 25.1 77.2 28 5.7 42.3
15:25 1018 30.06 848 25.04 25.5 77.9 29 6.4 43.5
15:30 1018 30.06 848 25.04 25.8 78.5 27 5.5 41.9
15:35 1018 30.06 848 25.04 26 78.8 27 5.7 42.2
15:40 1018 30.06 848 25.04 26 78.7 26 5.4 41.8
15:45 1018 30.06 848 25.04 25.9 78.6 27 5.9 42.7
15:50 1018 30.06 848 25.04 26.1 78.9 29 6.7 44.1
15:55 1018 30.06 848 25.04 26.2 79.2 27 5.8 42.5
16:00 1018 30.06 848 25.04 25.4 77.7 28 5.6 42
16:05 1018 30.06 848 25.04 26.2 79.1 27 5.7 42.3
16:10 1018 30.06 848 25.04 25.9 78.6 27 5.6 42.1
16:15 1018 30.06 848 25.04 26 78.8 26 5.4 41.7
16:20 1018 30.06 848 25.04 25.9 78.6 27 5.7 42.3
16:25 1018 30.06 848 25.04 25.3 77.5 28 5.7 42.2
16:30 1018 30.06 848 25.04 25.7 78.3 27 5.7 42.2
16:35 1018 30.06 848 25.04 25.6 78 28 5.9 42.7
16:40 1018 30.06 848 25.04 25.6 78.2 28 5.8 42.4
16:45 1018 30.06 848 25.04 25.2 77.4 30 6.4 43.5
16:50 1018 30.06 848 25.04 25 77 29 5.9 42.6
16:55 1018 30.06 848 25.04 24.9 76.7 29 5.6 42.1
17:00 1018 30.06 848 25.04 25.6 78.1 28 5.9 42.7
17:05 1018 30.06 848 25.04 25.7 78.3 27 5.8 42.5
17:10 1018 30.06 848 25.04 25.8 78.5 27 5.6 42.1
17:15 1018 30.06 848 25.04 26 78.7 27 5.8 42.5
17:20 1018 30.06 848 25.04 25.7 78.2 27 5.6 42.1
17:25 1018 30.06 848 25.04 25.7 78.2 28 5.8 42.5
17:30 1018 30.06 848 25.04 25.8 78.5 27 5.4 41.8
17:35 1018 30.06 848 25.04 26 78.8 27 5.7 42.2
17:40 1018 30.06 848 25.04 26.3 79.3 26 5.6 42
17:45 1018 30.06 848 25.04 26.5 79.6 25 5.1 41.3
17:50 1018 30.06 848 25.04 26.3 79.3 26 5.8 42.4
17:55 1018 30.06 848 25.04 26.2 79.2 25 5 41
18:00 1018 30.06 848 25.04 26.2 79.2 25 4.8 40.7
18:05 1018 30.06 848 25.04 26.1 79 26 5.2 41.3
18:10 1018 30.06 848 25.04 26.2 79.2 27 5.8 42.5
18:15 1018 30.06 848 25.04 26.3 79.3 26 5.3 41.5
18:20 1018 30.06 848 25.04 26.1 79 26 5.2 41.3
18:25 1019 30.09 848 25.04 25.8 78.5 26 4.8 40.7
18:30 1019 30.09 848 25.04 25.6 78.1 26 5.2 41.3
18:35 1019 30.09 848 25.04 25.5 77.8 27 5.3 41.5
18:40 1019 30.09 848 25.04 25.7 78.2 26 5 41
18:45 1019 30.09 848 25.04 25 76.9 28 5.2 41.4
18:50 1019 30.09 848 25.04 24.7 76.4 28 5.2 41.4
18:55 1019 30.09 848 25.04 24.7 76.4 28 5.3 41.5
19:00 1019 30.09 848 25.04 24.4 75.9 28 5.1 41.1
19:05 1019 30.09 848 25.04 24.3 75.7 28 5 41
19:10 1019 30.09 848 25.04 24.2 75.6 28 5 41
19:15 1019 30.09 848 25.04 24.2 75.6 30 5.7 42.3
19:20 1019 30.09 848 25.04 24.3 75.8 30 5.8 42.4
19:25 1019 30.09 848 25.04 24.2 75.5 32 6.7 44
19:30 1019 30.09 848 25.04 23.8 74.8 34 7.2 44.9
19:35 1019 30.09 848 25.04 23.6 74.5 34 6.9 44.3
19:40 1019 30.09 848 25.04 23.6 74.4 33 6.6 43.8
19:45 1019 30.09 848 25.04 23.5 74.3 33 6.6 43.9
19:50 1019 30.09 848 25.04 23.5 74.2 34 6.8 44.2
19:55 1019 30.09 848 25.04 23.4 74.1 34 6.9 44.4
20:00 1019 30.09 848 25.04 23.3 74 35 7.3 45.1
20:05 1019 30.09 848 25.04 23.2 73.7 39 8.5 47.3
20:10 1019 30.09 848 25.04 22.8 73 44 10 50.1
20:15 1019 30.09 848 25.04 22.1 71.7 44 9.4 48.9
20:20 1019 30.09 848 25.04 21.6 71 43 8.7 47.7
20:25 1019 30.09 848 25.04 21.3 70.4 48 10.1 50.2
20:30 1019 30.09 848 25.04 20.4 68.7 49 9.5 49
20:35 1019 30.09 849 25.07 20.3 68.5 48 9.1 48.4
20:40 1019 30.09 849 25.07 20.4 68.6 43 7.5 45.6
20:45 1019 30.09 849 25.07 20.4 68.7 42 7.3 45.1
20:50 1019 30.09 849 25.07 20.2 68.4 42 7.2 44.9
20:55 1020 30.12 849 25.07 20.3 68.5 42 7 44.5
21:00 1020 30.12 849 25.07 20.4 68.7 41 7 44.6
21:05 1020 30.12 849 25.07 20.2 68.4 43 7.3 45.1
21:10 1020 30.12 849 25.07 20.1 68.1 43 7.2 45
21:15 1020 30.12 849 25.07 20 68 43 7.3 45.1
21:20 1020 30.12 849 25.07 19.9 67.8 43 7.2 44.9
21:25 1020 30.12 849 25.07 20 67.9 43 7.3 45.1
21:30 1020 30.12 849 25.07 19.9 67.7 44 7.4 45.3
21:35 1020 30.12 849 25.07 19.8 67.6 44 7.3 45.1
21:40 1020 30.12 849 25.07 19.7 67.4 45 7.5 45.5
21:45 1020 30.12 849 25.07 19.4 67 45 7.5 45.5
21:50 1020 30.12 849 25.07 19.2 66.5 46 7.5 45.6
21:55 1020 30.12 850 25.1 19.2 66.6 45 7.3 45.1
22:00 1020 30.12 850 25.1 19.3 66.7 46 7.6 45.6
22:05 1020 30.12 850 25.1 19.2 66.6 45 7.3 45.1
22:10 1020 30.12 850 25.1 19.2 66.6 46 7.4 45.2
22:15 1021 30.15 850 25.1 19.2 66.5 47 7.6 45.7
22:20 1021 30.15 850 25.1 18.8 65.9 48 7.9 46.2
22:25 1021 30.15 850 25.1 18.6 65.4 48 7.6 45.7
22:30 1021 30.15 850 25.1 18.5 65.2 50 7.9 46.2
22:35 1021 30.15 850 25.1 18.2 64.8 50 7.8 46
22:40 1021 30.15 850 25.1 18.2 64.7 49 7.5 45.5
22:45 1021 30.15 850 25.1 18.2 64.8 49 7.4 45.4
22:50 1021 30.15 850 25.1 18.1 64.7 50 7.7 45.8
22:55 1021 30.15 850 25.1 17.8 64 51 7.7 45.9
23:00 1021 30.15 850 25.1 17.5 63.6 51 7.5 45.4
23:05 1021 30.15 850 25.1 17.5 63.6 51 7.5 45.4
23:10 1021 30.15 850 25.1 17.4 63.3 51 7.2 45
23:15 1021 30.15 850 25.1 17.4 63.4 51 7.2 45
23:20 1021 30.15 850 25.1 17.3 63.2 51 7.3 45.2
23:25 1021 30.15 851 25.13 17.2 62.9 52 7.3 45.1
23:30 1021 30.15 851 25.13 17.2 62.9 52 7.3 45.1
23:35 1021 30.15 851 25.13 17 62.6 52 7.3 45.1
23:40 1021 30.15 851 25.13 17 62.7 52 7.3 45.1
23:45 1021 30.15 851 25.13 16.8 62.2 53 7.2 45
23:50 1021 30.15 851 25.13 16.8 62.2 53 7.2 45
23:55 1021 30.15 851 25.13 16.6 61.9 54 7.3 45.2
24:00 1021 30.15 851 25.13 16.5 61.7 54 7.3 45.2